sensor_id;sensor_type;location;lat;lon;timestamp;temperature;humidity
15483;DHT22;7843;50.330;7.312;2022-09-13T00:01:44;14.70;99.30
15483;DHT22;7843;50.330;7.312;2022-09-13T00:04:10;14.70;99.40
15483;DHT22;7843;50.330;7.312;2022-09-13T00:06:38;14.60;99.60
15483;DHT22;7843;50.330;7.312;2022-09-13T00:09:04;14.50;99.70
15483;DHT22;7843;50.330;7.312;2022-09-13T00:11:31;14.50;99.70
15483;DHT22;7843;50.330;7.312;2022-09-13T00:13:58;14.50;99.80
15483;DHT22;7843;50.330;7.312;2022-09-13T00:16:27;14.40;99.90
15483;DHT22;7843;50.330;7.312;2022-09-13T00:18:54;14.40;99.90
15483;DHT22;7843;50.330;7.312;2022-09-13T00:21:22;14.40;99.80
15483;DHT22;7843;50.330;7.312;2022-09-13T00:23:51;14.40;99.80
15483;DHT22;7843;50.330;7.312;2022-09-13T00:26:22;14.30;99.80
15483;DHT22;7843;50.330;7.312;2022-09-13T00:28:50;14.30;99.80
15483;DHT22;7843;50.330;7.312;2022-09-13T00:31:18;14.30;99.80
15483;DHT22;7843;50.330;7.312;2022-09-13T00:33:45;14.30;99.80
15483;DHT22;7843;50.330;7.312;2022-09-13T00:36:12;14.30;99.90
15483;DHT22;7843;50.330;7.312;2022-09-13T00:38:41;14.30;99.90
15483;DHT22;7843;50.330;7.312;2022-09-13T00:41:12;14.30;99.90
15483;DHT22;7843;50.330;7.312;2022-09-13T00:44:00;14.30;99.80
15483;DHT22;7843;50.330;7.312;2022-09-13T00:46:36;14.20;99.80
15483;DHT22;7843;50.330;7.312;2022-09-13T00:49:18;14.20;99.90
15483;DHT22;7843;50.330;7.312;2022-09-13T00:51:50;14.20;99.90
15483;DHT22;7843;50.330;7.312;2022-09-13T00:54:22;14.10;99.90
15483;DHT22;7843;50.330;7.312;2022-09-13T00:56:54;14.20;99.90
15483;DHT22;7843;50.330;7.312;2022-09-13T00:59:25;14.20;99.90
15483;DHT22;7843;50.330;7.312;2022-09-13T01:01:55;14.20;99.90
15483;DHT22;7843;50.330;7.312;2022-09-13T01:04:25;14.20;99.90
15483;DHT22;7843;50.330;7.312;2022-09-13T01:06:55;14.20;99.90
15483;DHT22;7843;50.330;7.312;2022-09-13T01:09:22;14.10;99.90
15483;DHT22;7843;50.330;7.312;2022-09-13T01:11:54;14.20;99.90
15483;DHT22;7843;50.330;7.312;2022-09-13T01:14:31;14.10;99.90
15483;DHT22;7843;50.330;7.312;2022-09-13T01:16:58;14.00;99.90
15483;DHT22;7843;50.330;7.312;2022-09-13T01:19:24;14.00;99.90
15483;DHT22;7843;50.330;7.312;2022-09-13T01:39:18;14.10;99.90
15483;DHT22;7843;50.330;7.312;2022-09-13T01:42:02;14.20;99.90
15483;DHT22;7843;50.330;7.312;2022-09-13T01:47:37;14.30;99.90
15483;DHT22;7843;50.330;7.312;2022-09-13T01:50:07;14.20;99.90
15483;DHT22;7843;50.330;7.312;2022-09-13T01:55:38;14.30;99.90
15483;DHT22;7843;50.330;7.312;2022-09-13T02:01:14;14.20;99.90
15483;DHT22;7843;50.330;7.312;2022-09-13T02:03:56;14.20;99.90
15483;DHT22;7843;50.330;7.312;2022-09-13T02:06:30;14.20;99.90
15483;DHT22;7843;50.330;7.312;2022-09-13T02:09:07;14.20;99.90
15483;DHT22;7843;50.330;7.312;2022-09-13T02:11:37;14.20;99.90
15483;DHT22;7843;50.330;7.312;2022-09-13T02:14:10;14.20;99.90
15483;DHT22;7843;50.330;7.312;2022-09-13T02:16:48;14.20;99.90
15483;DHT22;7843;50.330;7.312;2022-09-13T02:19:25;14.20;99.90
15483;DHT22;7843;50.330;7.312;2022-09-13T02:21:56;14.20;99.90
15483;DHT22;7843;50.330;7.312;2022-09-13T02:24:29;14.20;99.90
15483;DHT22;7843;50.330;7.312;2022-09-13T02:27:01;14.10;99.90
15483;DHT22;7843;50.330;7.312;2022-09-13T02:29:30;14.10;99.90
15483;DHT22;7843;50.330;7.312;2022-09-13T02:32:50;14.10;99.90
15483;DHT22;7843;50.330;7.312;2022-09-13T02:37:33;13.90;99.90
15483;DHT22;7843;50.330;7.312;2022-09-13T02:40:04;13.90;99.90
15483;DHT22;7843;50.330;7.312;2022-09-13T02:42:39;13.90;99.90
15483;DHT22;7843;50.330;7.312;2022-09-13T02:45:11;13.80;99.90
15483;DHT22;7843;50.330;7.312;2022-09-13T02:56:11;13.60;99.90
15483;DHT22;7843;50.330;7.312;2022-09-13T02:58:57;13.60;99.90
15483;DHT22;7843;50.330;7.312;2022-09-13T03:01:26;13.60;99.90
15483;DHT22;7843;50.330;7.312;2022-09-13T03:03:53;13.70;99.90
15483;DHT22;7843;50.330;7.312;2022-09-13T03:06:30;13.60;99.90
15483;DHT22;7843;50.330;7.312;2022-09-13T03:09:00;13.70;99.90
15483;DHT22;7843;50.330;7.312;2022-09-13T03:11:52;13.60;99.90
15483;DHT22;7843;50.330;7.312;2022-09-13T03:14:33;13.60;99.90
15483;DHT22;7843;50.330;7.312;2022-09-13T03:17:15;13.60;99.90
15483;DHT22;7843;50.330;7.312;2022-09-13T03:20:11;13.60;99.90
15483;DHT22;7843;50.330;7.312;2022-09-13T03:23:18;13.60;99.90
15483;DHT22;7843;50.330;7.312;2022-09-13T03:26:13;13.60;99.90
15483;DHT22;7843;50.330;7.312;2022-09-13T03:28:54;13.70;99.90
15483;DHT22;7843;50.330;7.312;2022-09-13T03:31:34;13.70;99.90
15483;DHT22;7843;50.330;7.312;2022-09-13T03:34:13;13.70;99.90
15483;DHT22;7843;50.330;7.312;2022-09-13T03:37:02;13.70;99.90
15483;DHT22;7843;50.330;7.312;2022-09-13T03:39:40;13.70;99.90
15483;DHT22;7843;50.330;7.312;2022-09-13T03:42:22;13.80;99.90
15483;DHT22;7843;50.330;7.312;2022-09-13T03:44:52;13.70;99.90
15483;DHT22;7843;50.330;7.312;2022-09-13T03:47:22;13.80;99.90
15483;DHT22;7843;50.330;7.312;2022-09-13T03:49:51;13.80;99.90
15483;DHT22;7843;50.330;7.312;2022-09-13T03:52:18;13.80;99.90
15483;DHT22;7843;50.330;7.312;2022-09-13T03:54:45;13.70;99.90
15483;DHT22;7843;50.330;7.312;2022-09-13T03:57:14;13.80;99.90
15483;DHT22;7843;50.330;7.312;2022-09-13T03:59:53;13.80;99.90
15483;DHT22;7843;50.330;7.312;2022-09-13T04:02:21;13.80;99.90
15483;DHT22;7843;50.330;7.312;2022-09-13T04:04:49;13.80;99.90
15483;DHT22;7843;50.330;7.312;2022-09-13T04:07:18;13.80;99.90
15483;DHT22;7843;50.330;7.312;2022-09-13T04:09:45;13.80;99.90
15483;DHT22;7843;50.330;7.312;2022-09-13T04:12:13;13.90;99.90
15483;DHT22;7843;50.330;7.312;2022-09-13T04:14:41;13.90;99.90
15483;DHT22;7843;50.330;7.312;2022-09-13T04:17:09;13.90;99.90
15483;DHT22;7843;50.330;7.312;2022-09-13T04:19:36;14.00;99.90
15483;DHT22;7843;50.330;7.312;2022-09-13T04:22:03;14.00;99.90
15483;DHT22;7843;50.330;7.312;2022-09-13T04:24:30;14.10;99.90
15483;DHT22;7843;50.330;7.312;2022-09-13T04:26:57;14.10;99.90
15483;DHT22;7843;50.330;7.312;2022-09-13T04:29:25;14.10;99.90
15483;DHT22;7843;50.330;7.312;2022-09-13T04:31:53;14.10;99.90
15483;DHT22;7843;50.330;7.312;2022-09-13T04:34:20;14.10;99.90
15483;DHT22;7843;50.330;7.312;2022-09-13T04:36:51;14.20;99.90
15483;DHT22;7843;50.330;7.312;2022-09-13T04:39:19;14.20;99.90
15483;DHT22;7843;50.330;7.312;2022-09-13T04:41:47;14.10;99.90
15483;DHT22;7843;50.330;7.312;2022-09-13T04:44:15;14.10;99.90
15483;DHT22;7843;50.330;7.312;2022-09-13T04:46:45;14.20;99.90
15483;DHT22;7843;50.330;7.312;2022-09-13T04:49:14;14.20;99.90
15483;DHT22;7843;50.330;7.312;2022-09-13T04:51:41;14.20;99.90
15483;DHT22;7843;50.330;7.312;2022-09-13T04:54:09;14.30;99.90
15483;DHT22;7843;50.330;7.312;2022-09-13T04:56:40;14.30;99.90
15483;DHT22;7843;50.330;7.312;2022-09-13T04:59:06;14.30;99.90
15483;DHT22;7843;50.330;7.312;2022-09-13T05:01:33;14.30;99.90
15483;DHT22;7843;50.330;7.312;2022-09-13T05:04:00;14.40;99.90
15483;DHT22;7843;50.330;7.312;2022-09-13T05:06:27;14.40;99.90
15483;DHT22;7843;50.330;7.312;2022-09-13T05:08:55;14.40;99.90
15483;DHT22;7843;50.330;7.312;2022-09-13T05:11:24;14.30;99.90
15483;DHT22;7843;50.330;7.312;2022-09-13T05:13:52;14.30;99.90
15483;DHT22;7843;50.330;7.312;2022-09-13T05:16:22;14.20;99.90
15483;DHT22;7843;50.330;7.312;2022-09-13T05:18:49;14.20;99.90
15483;DHT22;7843;50.330;7.312;2022-09-13T05:21:17;14.20;99.90
15483;DHT22;7843;50.330;7.312;2022-09-13T05:23:44;14.20;99.90
15483;DHT22;7843;50.330;7.312;2022-09-13T05:26:14;14.20;99.90
15483;DHT22;7843;50.330;7.312;2022-09-13T05:28:40;14.20;99.90
15483;DHT22;7843;50.330;7.312;2022-09-13T05:31:12;14.20;99.90
15483;DHT22;7843;50.330;7.312;2022-09-13T05:33:40;14.20;99.90
15483;DHT22;7843;50.330;7.312;2022-09-13T05:36:06;14.30;99.90
15483;DHT22;7843;50.330;7.312;2022-09-13T05:38:36;14.30;99.90
15483;DHT22;7843;50.330;7.312;2022-09-13T05:41:04;14.30;99.90
15483;DHT22;7843;50.330;7.312;2022-09-13T05:43:33;14.30;99.90
15483;DHT22;7843;50.330;7.312;2022-09-13T05:48:28;14.40;99.90
15483;DHT22;7843;50.330;7.312;2022-09-13T05:50:55;14.50;99.90
15483;DHT22;7843;50.330;7.312;2022-09-13T05:53:23;14.50;99.90
15483;DHT22;7843;50.330;7.312;2022-09-13T05:55:50;14.50;99.90
15483;DHT22;7843;50.330;7.312;2022-09-13T05:58:17;14.50;99.90
15483;DHT22;7843;50.330;7.312;2022-09-13T06:00:55;14.60;99.90
15483;DHT22;7843;50.330;7.312;2022-09-13T06:03:22;14.60;99.90
15483;DHT22;7843;50.330;7.312;2022-09-13T06:05:53;14.60;99.90
15483;DHT22;7843;50.330;7.312;2022-09-13T06:08:19;14.60;99.90
15483;DHT22;7843;50.330;7.312;2022-09-13T06:11:03;14.60;99.90
15483;DHT22;7843;50.330;7.312;2022-09-13T06:13:32;14.70;99.90
15483;DHT22;7843;50.330;7.312;2022-09-13T06:16:01;14.70;99.90
15483;DHT22;7843;50.330;7.312;2022-09-13T06:18:28;14.70;99.90
15483;DHT22;7843;50.330;7.312;2022-09-13T06:21:15;14.70;99.90
15483;DHT22;7843;50.330;7.312;2022-09-13T06:23:44;14.70;99.90
15483;DHT22;7843;50.330;7.312;2022-09-13T06:26:13;14.80;99.90
15483;DHT22;7843;50.330;7.312;2022-09-13T06:28:41;14.80;99.90
15483;DHT22;7843;50.330;7.312;2022-09-13T06:31:11;14.90;99.90
15483;DHT22;7843;50.330;7.312;2022-09-13T06:33:39;15.00;99.90
15483;DHT22;7843;50.330;7.312;2022-09-13T06:36:09;15.00;99.90
15483;DHT22;7843;50.330;7.312;2022-09-13T06:38:37;15.10;99.90
15483;DHT22;7843;50.330;7.312;2022-09-13T06:41:06;15.10;99.90
15483;DHT22;7843;50.330;7.312;2022-09-13T06:43:34;15.10;99.90
15483;DHT22;7843;50.330;7.312;2022-09-13T06:46:12;15.20;99.90
15483;DHT22;7843;50.330;7.312;2022-09-13T06:48:41;15.20;99.90
15483;DHT22;7843;50.330;7.312;2022-09-13T06:51:13;15.30;99.90
15483;DHT22;7843;50.330;7.312;2022-09-13T06:53:41;15.30;99.90
15483;DHT22;7843;50.330;7.312;2022-09-13T06:56:16;15.40;99.90
15483;DHT22;7843;50.330;7.312;2022-09-13T06:58:45;15.40;99.90
15483;DHT22;7843;50.330;7.312;2022-09-13T07:01:16;15.50;99.90
15483;DHT22;7843;50.330;7.312;2022-09-13T07:03:45;15.50;99.90
15483;DHT22;7843;50.330;7.312;2022-09-13T07:06:21;15.50;99.90
15483;DHT22;7843;50.330;7.312;2022-09-13T07:08:50;15.50;99.90
15483;DHT22;7843;50.330;7.312;2022-09-13T07:11:19;15.50;99.90
15483;DHT22;7843;50.330;7.312;2022-09-13T07:13:53;15.60;99.90
15483;DHT22;7843;50.330;7.312;2022-09-13T07:16:32;15.70;99.90
15483;DHT22;7843;50.330;7.312;2022-09-13T07:19:04;15.80;99.90
15483;DHT22;7843;50.330;7.312;2022-09-13T07:21:32;15.80;99.90
15483;DHT22;7843;50.330;7.312;2022-09-13T07:23:59;15.90;99.90
15483;DHT22;7843;50.330;7.312;2022-09-13T07:26:26;16.00;99.90
15483;DHT22;7843;50.330;7.312;2022-09-13T07:28:56;16.10;99.90
15483;DHT22;7843;50.330;7.312;2022-09-13T07:31:37;16.20;99.90
15483;DHT22;7843;50.330;7.312;2022-09-13T07:34:12;16.30;99.90
15483;DHT22;7843;50.330;7.312;2022-09-13T07:36:39;16.40;99.90
15483;DHT22;7843;50.330;7.312;2022-09-13T07:39:06;16.50;99.90
15483;DHT22;7843;50.330;7.312;2022-09-13T07:41:35;16.50;99.90
15483;DHT22;7843;50.330;7.312;2022-09-13T07:44:03;16.50;99.90
15483;DHT22;7843;50.330;7.312;2022-09-13T07:46:31;16.60;99.90
15483;DHT22;7843;50.330;7.312;2022-09-13T07:48:59;16.60;99.90
15483;DHT22;7843;50.330;7.312;2022-09-13T07:51:28;16.60;99.90
15483;DHT22;7843;50.330;7.312;2022-09-13T07:54:00;16.60;99.90
15483;DHT22;7843;50.330;7.312;2022-09-13T07:56:30;16.60;99.90
15483;DHT22;7843;50.330;7.312;2022-09-13T07:58:59;16.50;99.90
15483;DHT22;7843;50.330;7.312;2022-09-13T08:01:28;16.40;99.90
15483;DHT22;7843;50.330;7.312;2022-09-13T08:03:57;16.40;99.90
15483;DHT22;7843;50.330;7.312;2022-09-13T08:06:26;16.30;99.90
15483;DHT22;7843;50.330;7.312;2022-09-13T08:08:53;16.20;99.90
15483;DHT22;7843;50.330;7.312;2022-09-13T08:11:44;16.20;99.90
15483;DHT22;7843;50.330;7.312;2022-09-13T08:14:12;16.10;99.90
15483;DHT22;7843;50.330;7.312;2022-09-13T08:16:39;16.00;99.90
15483;DHT22;7843;50.330;7.312;2022-09-13T08:19:06;16.00;99.90
15483;DHT22;7843;50.330;7.312;2022-09-13T08:21:36;15.90;99.90
15483;DHT22;7843;50.330;7.312;2022-09-13T08:24:04;15.90;99.90
15483;DHT22;7843;50.330;7.312;2022-09-13T08:26:32;15.90;99.90
15483;DHT22;7843;50.330;7.312;2022-09-13T08:29:02;16.00;99.90
15483;DHT22;7843;50.330;7.312;2022-09-13T08:31:30;16.00;99.90
15483;DHT22;7843;50.330;7.312;2022-09-13T08:33:57;16.00;99.90
15483;DHT22;7843;50.330;7.312;2022-09-13T08:36:26;16.00;99.90
15483;DHT22;7843;50.330;7.312;2022-09-13T08:38:55;16.10;99.90
15483;DHT22;7843;50.330;7.312;2022-09-13T08:46:55;16.40;99.90
15483;DHT22;7843;50.330;7.312;2022-09-13T08:49:33;16.40;99.90
15483;DHT22;7843;50.330;7.312;2022-09-13T08:52:28;16.50;99.90
15483;DHT22;7843;50.330;7.312;2022-09-13T08:54:57;16.60;99.90
15483;DHT22;7843;50.330;7.312;2022-09-13T08:57:32;16.70;99.90
15483;DHT22;7843;50.330;7.312;2022-09-13T09:02:47;16.80;99.90
15483;DHT22;7843;50.330;7.312;2022-09-13T09:05:22;16.80;99.90
15483;DHT22;7843;50.330;7.312;2022-09-13T09:07:58;16.80;99.90
15483;DHT22;7843;50.330;7.312;2022-09-13T09:10:48;16.80;99.90
15483;DHT22;7843;50.330;7.312;2022-09-13T09:13:32;16.90;99.90
15483;DHT22;7843;50.330;7.312;2022-09-13T09:16:29;17.00;99.90
15483;DHT22;7843;50.330;7.312;2022-09-13T09:19:01;17.10;99.90
15483;DHT22;7843;50.330;7.312;2022-09-13T09:21:31;17.20;99.90
15483;DHT22;7843;50.330;7.312;2022-09-13T09:24:00;17.20;99.90
15483;DHT22;7843;50.330;7.312;2022-09-13T09:26:29;17.30;99.90
15483;DHT22;7843;50.330;7.312;2022-09-13T09:29:00;17.30;99.90
15483;DHT22;7843;50.330;7.312;2022-09-13T09:31:53;17.40;99.90
15483;DHT22;7843;50.330;7.312;2022-09-13T09:37:21;17.70;99.90
15483;DHT22;7843;50.330;7.312;2022-09-13T09:39:48;17.90;99.90
15483;DHT22;7843;50.330;7.312;2022-09-13T09:42:24;18.00;99.90
15483;DHT22;7843;50.330;7.312;2022-09-13T09:44:56;18.10;99.90
15483;DHT22;7843;50.330;7.312;2022-09-13T09:47:28;18.20;99.90
15483;DHT22;7843;50.330;7.312;2022-09-13T09:50:46;18.40;99.90
15483;DHT22;7843;50.330;7.312;2022-09-13T09:53:05;18.50;99.90
15483;DHT22;7843;50.330;7.312;2022-09-13T09:55:41;18.60;99.90
15483;DHT22;7843;50.330;7.312;2022-09-13T09:58:11;18.70;99.90
15483;DHT22;7843;50.330;7.312;2022-09-13T10:00:53;18.80;99.90
15483;DHT22;7843;50.330;7.312;2022-09-13T10:03:31;19.00;99.90
15483;DHT22;7843;50.330;7.312;2022-09-13T10:08:36;19.20;99.90
15483;DHT22;7843;50.330;7.312;2022-09-13T10:11:03;19.30;99.90
15483;DHT22;7843;50.330;7.312;2022-09-13T10:13:32;19.40;99.90
15483;DHT22;7843;50.330;7.312;2022-09-13T10:16:03;19.60;99.90
15483;DHT22;7843;50.330;7.312;2022-09-13T10:18:32;19.90;99.90
15483;DHT22;7843;50.330;7.312;2022-09-13T10:23:45;20.20;99.90
15483;DHT22;7843;50.330;7.312;2022-09-13T10:26:20;20.30;99.90
15483;DHT22;7843;50.330;7.312;2022-09-13T10:29:08;20.30;99.90
15483;DHT22;7843;50.330;7.312;2022-09-13T10:31:38;20.40;99.90
15483;DHT22;7843;50.330;7.312;2022-09-13T10:36:37;20.50;99.90
15483;DHT22;7843;50.330;7.312;2022-09-13T10:39:25;20.50;99.90
15483;DHT22;7843;50.330;7.312;2022-09-13T10:41:59;20.50;99.90
15483;DHT22;7843;50.330;7.312;2022-09-13T10:44:42;20.50;99.90
15483;DHT22;7843;50.330;7.312;2022-09-13T10:47:22;20.50;99.90
15483;DHT22;7843;50.330;7.312;2022-09-13T10:49:52;20.60;99.90
15483;DHT22;7843;50.330;7.312;2022-09-13T10:52:33;20.70;99.90
15483;DHT22;7843;50.330;7.312;2022-09-13T10:55:32;20.80;99.90
15483;DHT22;7843;50.330;7.312;2022-09-13T11:01:11;21.00;98.80
15483;DHT22;7843;50.330;7.312;2022-09-13T11:09:07;21.30;97.80
15483;DHT22;7843;50.330;7.312;2022-09-13T11:14:45;21.50;96.60
15483;DHT22;7843;50.330;7.312;2022-09-13T11:23:03;21.40;95.40
15483;DHT22;7843;50.330;7.312;2022-09-13T11:33:45;21.60;97.00
15483;DHT22;7843;50.330;7.312;2022-09-13T11:39:21;22.00;95.90
15483;DHT22;7843;50.330;7.312;2022-09-13T11:45:13;22.20;91.60
15483;DHT22;7843;50.330;7.312;2022-09-13T11:48:05;22.20;92.30
15483;DHT22;7843;50.330;7.312;2022-09-13T11:50:55;22.10;92.40
15483;DHT22;7843;50.330;7.312;2022-09-13T11:56:27;22.00;92.40
15483;DHT22;7843;50.330;7.312;2022-09-13T12:01:46;22.00;93.00
15483;DHT22;7843;50.330;7.312;2022-09-13T12:04:22;22.10;92.00
15483;DHT22;7843;50.330;7.312;2022-09-13T12:06:58;22.30;90.40
15483;DHT22;7843;50.330;7.312;2022-09-13T12:09:34;22.70;90.10
15483;DHT22;7843;50.330;7.312;2022-09-13T12:12:09;22.90;90.40
15483;DHT22;7843;50.330;7.312;2022-09-13T12:17:21;23.20;89.80
15483;DHT22;7843;50.330;7.312;2022-09-13T12:19:51;23.10;89.30
15483;DHT22;7843;50.330;7.312;2022-09-13T12:22:23;23.00;89.80
15483;DHT22;7843;50.330;7.312;2022-09-13T12:24:58;22.80;89.10
15483;DHT22;7843;50.330;7.312;2022-09-13T12:27:30;22.70;90.00
15483;DHT22;7843;50.330;7.312;2022-09-13T12:30:21;22.60;90.70
15483;DHT22;7843;50.330;7.312;2022-09-13T12:32:49;22.70;90.30
15483;DHT22;7843;50.330;7.312;2022-09-13T12:35:33;22.90;91.70
15483;DHT22;7843;50.330;7.312;2022-09-13T12:38:10;23.10;89.10
15483;DHT22;7843;50.330;7.312;2022-09-13T12:40:53;23.10;88.20
15483;DHT22;7843;50.330;7.312;2022-09-13T12:57:16;22.50;90.10
15483;DHT22;7843;50.330;7.312;2022-09-13T13:02:29;22.40;89.40
15483;DHT22;7843;50.330;7.312;2022-09-13T13:05:05;22.30;89.50
15483;DHT22;7843;50.330;7.312;2022-09-13T13:07:41;22.20;89.70
15483;DHT22;7843;50.330;7.312;2022-09-13T13:10:24;22.20;90.20
15483;DHT22;7843;50.330;7.312;2022-09-13T13:12:52;22.10;90.50
15483;DHT22;7843;50.330;7.312;2022-09-13T13:17:53;21.90;91.80
15483;DHT22;7843;50.330;7.312;2022-09-13T13:26:12;21.70;91.90
15483;DHT22;7843;50.330;7.312;2022-09-13T13:36:31;21.40;94.10
15483;DHT22;7843;50.330;7.312;2022-09-13T13:39:01;21.30;93.30
15483;DHT22;7843;50.330;7.312;2022-09-13T13:46:53;21.40;94.90
15483;DHT22;7843;50.330;7.312;2022-09-13T13:59:48;21.40;95.80
15483;DHT22;7843;50.330;7.312;2022-09-13T14:02:19;21.50;95.20
15483;DHT22;7843;50.330;7.312;2022-09-13T14:11:05;21.40;94.50
15483;DHT22;7843;50.330;7.312;2022-09-13T14:13:52;21.40;93.20
15483;DHT22;7843;50.330;7.312;2022-09-13T14:19:18;21.40;94.90
15483;DHT22;7843;50.330;7.312;2022-09-13T14:21:45;21.40;95.50
15483;DHT22;7843;50.330;7.312;2022-09-13T14:24:35;21.30;95.90
15483;DHT22;7843;50.330;7.312;2022-09-13T14:27:03;21.30;96.40
15483;DHT22;7843;50.330;7.312;2022-09-13T14:29:33;21.30;97.30
15483;DHT22;7843;50.330;7.312;2022-09-13T14:32:04;21.30;97.00
15483;DHT22;7843;50.330;7.312;2022-09-13T14:34:35;21.20;97.50
15483;DHT22;7843;50.330;7.312;2022-09-13T14:37:14;21.20;97.50
15483;DHT22;7843;50.330;7.312;2022-09-13T14:39:55;21.10;98.00
15483;DHT22;7843;50.330;7.312;2022-09-13T14:42:23;21.10;98.00
15483;DHT22;7843;50.330;7.312;2022-09-13T14:44:49;21.00;98.50
15483;DHT22;7843;50.330;7.312;2022-09-13T14:47:27;21.00;98.20
15483;DHT22;7843;50.330;7.312;2022-09-13T14:50:13;21.00;98.30
15483;DHT22;7843;50.330;7.312;2022-09-13T14:55:24;21.00;98.20
15483;DHT22;7843;50.330;7.312;2022-09-13T14:57:57;21.00;98.10
15483;DHT22;7843;50.330;7.312;2022-09-13T15:00:31;21.00;98.20
15483;DHT22;7843;50.330;7.312;2022-09-13T15:03:02;21.00;98.30
15483;DHT22;7843;50.330;7.312;2022-09-13T15:05:32;21.00;98.30
15483;DHT22;7843;50.330;7.312;2022-09-13T15:07:59;20.90;98.50
15483;DHT22;7843;50.330;7.312;2022-09-13T15:10:30;20.90;98.60
15483;DHT22;7843;50.330;7.312;2022-09-13T15:18:21;21.00;98.00
15483;DHT22;7843;50.330;7.312;2022-09-13T15:20:57;21.00;97.40
15483;DHT22;7843;50.330;7.312;2022-09-13T15:23:27;21.00;96.80
15483;DHT22;7843;50.330;7.312;2022-09-13T15:25:58;21.00;97.90
15483;DHT22;7843;50.330;7.312;2022-09-13T15:28:29;20.90;98.10
15483;DHT22;7843;50.330;7.312;2022-09-13T15:30:58;20.90;97.50
15483;DHT22;7843;50.330;7.312;2022-09-13T15:33:30;20.90;98.10
15483;DHT22;7843;50.330;7.312;2022-09-13T15:36:35;20.80;98.50
15483;DHT22;7843;50.330;7.312;2022-09-13T15:41:35;20.70;98.60
15483;DHT22;7843;50.330;7.312;2022-09-13T15:44:05;20.70;99.40
15483;DHT22;7843;50.330;7.312;2022-09-13T15:46:36;20.70;98.90
15483;DHT22;7843;50.330;7.312;2022-09-13T15:49:04;20.70;99.10
15483;DHT22;7843;50.330;7.312;2022-09-13T15:51:31;20.70;99.20
15483;DHT22;7843;50.330;7.312;2022-09-13T15:54:01;20.60;99.00
15483;DHT22;7843;50.330;7.312;2022-09-13T15:56:31;20.60;99.10
15483;DHT22;7843;50.330;7.312;2022-09-13T15:58:58;20.50;99.50
15483;DHT22;7843;50.330;7.312;2022-09-13T16:01:25;20.50;99.20
15483;DHT22;7843;50.330;7.312;2022-09-13T16:03:53;20.50;99.20
15483;DHT22;7843;50.330;7.312;2022-09-13T16:06:19;20.50;98.70
15483;DHT22;7843;50.330;7.312;2022-09-13T16:08:49;20.50;99.30
15483;DHT22;7843;50.330;7.312;2022-09-13T16:11:16;20.50;98.20
15483;DHT22;7843;50.330;7.312;2022-09-13T16:13:42;20.50;97.70
15483;DHT22;7843;50.330;7.312;2022-09-13T16:16:12;20.50;97.70
15483;DHT22;7843;50.330;7.312;2022-09-13T16:18:39;20.60;97.20
15483;DHT22;7843;50.330;7.312;2022-09-13T16:21:06;20.50;97.70
15483;DHT22;7843;50.330;7.312;2022-09-13T16:23:32;20.50;98.50
15483;DHT22;7843;50.330;7.312;2022-09-13T16:25:59;20.40;98.20
15483;DHT22;7843;50.330;7.312;2022-09-13T16:28:27;20.40;98.30
15483;DHT22;7843;50.330;7.312;2022-09-13T16:30:53;20.30;98.80
15483;DHT22;7843;50.330;7.312;2022-09-13T16:33:21;20.20;99.40
15483;DHT22;7843;50.330;7.312;2022-09-13T16:35:47;20.10;99.60
15483;DHT22;7843;50.330;7.312;2022-09-13T16:38:14;20.00;99.90
15483;DHT22;7843;50.330;7.312;2022-09-13T16:40:42;19.90;99.90
15483;DHT22;7843;50.330;7.312;2022-09-13T16:43:10;19.80;99.90
15483;DHT22;7843;50.330;7.312;2022-09-13T16:45:39;19.70;99.90
15483;DHT22;7843;50.330;7.312;2022-09-13T16:48:07;19.60;99.90
15483;DHT22;7843;50.330;7.312;2022-09-13T16:50:34;19.50;99.90
15483;DHT22;7843;50.330;7.312;2022-09-13T16:53:01;19.40;99.90
15483;DHT22;7843;50.330;7.312;2022-09-13T16:55:28;19.30;99.90
15483;DHT22;7843;50.330;7.312;2022-09-13T16:57:55;19.30;99.90
15483;DHT22;7843;50.330;7.312;2022-09-13T17:00:22;19.30;99.90
15483;DHT22;7843;50.330;7.312;2022-09-13T17:02:54;19.20;99.90
15483;DHT22;7843;50.330;7.312;2022-09-13T17:05:22;19.20;99.90
15483;DHT22;7843;50.330;7.312;2022-09-13T17:07:50;19.20;99.90
15483;DHT22;7843;50.330;7.312;2022-09-13T17:10:17;19.20;99.90
15483;DHT22;7843;50.330;7.312;2022-09-13T17:12:44;19.20;99.90
15483;DHT22;7843;50.330;7.312;2022-09-13T17:15:11;19.20;99.90
15483;DHT22;7843;50.330;7.312;2022-09-13T17:17:38;19.10;99.90
15483;DHT22;7843;50.330;7.312;2022-09-13T17:20:07;19.10;99.90
15483;DHT22;7843;50.330;7.312;2022-09-13T17:22:35;19.10;99.90
15483;DHT22;7843;50.330;7.312;2022-09-13T17:25:03;19.10;99.90
15483;DHT22;7843;50.330;7.312;2022-09-13T17:27:33;19.10;99.90
15483;DHT22;7843;50.330;7.312;2022-09-13T17:30:00;19.10;99.90
15483;DHT22;7843;50.330;7.312;2022-09-13T17:32:27;19.10;99.90
15483;DHT22;7843;50.330;7.312;2022-09-13T17:34:54;19.10;99.90
15483;DHT22;7843;50.330;7.312;2022-09-13T17:37:21;19.00;99.90
15483;DHT22;7843;50.330;7.312;2022-09-13T17:39:47;19.00;99.90
15483;DHT22;7843;50.330;7.312;2022-09-13T17:42:14;19.00;99.90
15483;DHT22;7843;50.330;7.312;2022-09-13T17:44:41;18.90;99.90
15483;DHT22;7843;50.330;7.312;2022-09-13T17:47:08;18.90;99.90
15483;DHT22;7843;50.330;7.312;2022-09-13T17:49:35;18.80;99.90
15483;DHT22;7843;50.330;7.312;2022-09-13T17:52:01;18.80;99.90
15483;DHT22;7843;50.330;7.312;2022-09-13T17:54:28;18.80;99.90
15483;DHT22;7843;50.330;7.312;2022-09-13T17:56:55;18.70;99.90
15483;DHT22;7843;50.330;7.312;2022-09-13T17:59:22;18.70;99.90
15483;DHT22;7843;50.330;7.312;2022-09-13T18:01:51;18.70;99.90
15483;DHT22;7843;50.330;7.312;2022-09-13T18:04:21;18.70;99.90
15483;DHT22;7843;50.330;7.312;2022-09-13T18:06:50;18.60;99.90
15483;DHT22;7843;50.330;7.312;2022-09-13T18:09:17;18.60;99.90
15483;DHT22;7843;50.330;7.312;2022-09-13T18:11:43;18.60;99.90
15483;DHT22;7843;50.330;7.312;2022-09-13T18:14:15;18.60;99.90
15483;DHT22;7843;50.330;7.312;2022-09-13T18:16:42;18.60;99.90
15483;DHT22;7843;50.330;7.312;2022-09-13T18:19:09;18.60;99.90
15483;DHT22;7843;50.330;7.312;2022-09-13T18:21:37;18.50;99.90
15483;DHT22;7843;50.330;7.312;2022-09-13T18:24:04;18.50;99.90
15483;DHT22;7843;50.330;7.312;2022-09-13T18:26:32;18.50;99.90
15483;DHT22;7843;50.330;7.312;2022-09-13T18:29:03;18.50;99.90
15483;DHT22;7843;50.330;7.312;2022-09-13T18:31:32;18.50;99.90
15483;DHT22;7843;50.330;7.312;2022-09-13T18:34:02;18.50;99.90
15483;DHT22;7843;50.330;7.312;2022-09-13T18:36:30;18.50;99.90
15483;DHT22;7843;50.330;7.312;2022-09-13T18:38:58;18.50;99.90
15483;DHT22;7843;50.330;7.312;2022-09-13T18:41:36;18.40;99.90
15483;DHT22;7843;50.330;7.312;2022-09-13T18:44:06;18.50;99.90
15483;DHT22;7843;50.330;7.312;2022-09-13T18:46:34;18.50;99.90
15483;DHT22;7843;50.330;7.312;2022-09-13T18:49:02;18.40;99.90
15483;DHT22;7843;50.330;7.312;2022-09-13T18:51:31;18.40;99.90
15483;DHT22;7843;50.330;7.312;2022-09-13T18:53:59;18.40;99.90
15483;DHT22;7843;50.330;7.312;2022-09-13T18:56:27;18.40;99.90
15483;DHT22;7843;50.330;7.312;2022-09-13T18:58:54;18.40;99.90
15483;DHT22;7843;50.330;7.312;2022-09-13T19:01:24;18.40;99.90